Terminal Aerodrome Forecast
Issued by NWS Norman, OK

Home | Current Version | Previous Version | Text Only | Print | Product List | Glossary On
Versions: 1 2 3 4 5 6 7 8 9 10 11 12 13 14 15 16 17 18 19 20 21 22 23 24 25 26 27 28 29 30
000
FTUS44 KOUN 251546 AAA
TAFOKC
TAF AMD
KOKC 251546Z 2516/2612 19017G25KT P6SM BKN025
     FM251800 17015G22KT P6SM BKN035
     FM260400 17010KT P6SM BKN015=

USA.gov is the U.S. government's official web portal to all federal, state and local government web resources and services.